sensor_id;sensor_type;location;lat;lon;timestamp;pressure;altitude;pressure_sealevel;temperature;humidity
68380;BME280;57711;53.196;19.638;2022-12-18T00:01:20;101592.50;;;-1.34;67.82
68380;BME280;57711;53.196;19.638;2022-12-18T00:03:48;101588.69;;;-1.29;67.82
68380;BME280;57711;53.196;19.638;2022-12-18T00:06:19;101589.86;;;-1.27;67.77
68380;BME280;57711;53.196;19.638;2022-12-18T00:08:46;101591.44;;;-1.25;67.80
68380;BME280;57711;53.196;19.638;2022-12-18T00:11:17;101592.14;;;-1.25;67.82
68380;BME280;57711;53.196;19.638;2022-12-18T00:13:45;101596.40;;;-1.25;67.81
68380;BME280;57711;53.196;19.638;2022-12-18T00:16:15;101598.36;;;-1.25;67.88
68380;BME280;57711;53.196;19.638;2022-12-18T00:18:42;101600.69;;;-1.26;67.85
68380;BME280;57711;53.196;19.638;2022-12-18T00:21:11;101598.74;;;-1.27;67.81
68380;BME280;57711;53.196;19.638;2022-12-18T00:23:41;101602.31;;;-1.28;67.91
68380;BME280;57711;53.196;19.638;2022-12-18T00:26:19;101605.34;;;-1.28;67.96
68380;BME280;57711;53.196;19.638;2022-12-18T00:28:49;101609.99;;;-1.30;67.99
68380;BME280;57711;53.196;19.638;2022-12-18T00:31:19;101615.56;;;-1.34;67.84
68380;BME280;57711;53.196;19.638;2022-12-18T00:33:47;101614.53;;;-1.36;68.00
68380;BME280;57711;53.196;19.638;2022-12-18T00:36:21;101621.40;;;-1.33;67.97
68380;BME280;57711;53.196;19.638;2022-12-18T00:38:52;101626.69;;;-1.31;67.94
68380;BME280;57711;53.196;19.638;2022-12-18T00:41:20;101628.98;;;-1.30;67.87
68380;BME280;57711;53.196;19.638;2022-12-18T00:44:08;101635.28;;;-1.26;67.82
68380;BME280;57711;53.196;19.638;2022-12-18T00:46:36;101640.76;;;-1.24;67.75
68380;BME280;57711;53.196;19.638;2022-12-18T00:49:04;101642.01;;;-1.25;67.74
68380;BME280;57711;53.196;19.638;2022-12-18T00:51:32;101642.55;;;-1.25;67.78
68380;BME280;57711;53.196;19.638;2022-12-18T00:53:59;101651.05;;;-1.23;67.90
68380;BME280;57711;53.196;19.638;2022-12-18T00:56:26;101654.70;;;-1.21;67.99
68380;BME280;57711;53.196;19.638;2022-12-18T00:58:54;101664.32;;;-1.22;67.90
68380;BME280;57711;53.196;19.638;2022-12-18T01:01:21;101667.02;;;-1.24;67.96
68380;BME280;57711;53.196;19.638;2022-12-18T01:03:48;101672.77;;;-1.29;67.85
68380;BME280;57711;53.196;19.638;2022-12-18T01:06:16;101671.59;;;-1.32;67.84
68380;BME280;57711;53.196;19.638;2022-12-18T01:08:43;101670.80;;;-1.37;67.80
68380;BME280;57711;53.196;19.638;2022-12-18T01:11:19;101672.46;;;-1.41;67.89
68380;BME280;57711;53.196;19.638;2022-12-18T01:13:47;101674.42;;;-1.43;67.92
68380;BME280;57711;53.196;19.638;2022-12-18T01:16:16;101673.91;;;-1.43;67.90
68380;BME280;57711;53.196;19.638;2022-12-18T01:18:44;101679.92;;;-1.42;67.73
68380;BME280;57711;53.196;19.638;2022-12-18T01:21:14;101679.21;;;-1.42;67.85
68380;BME280;57711;53.196;19.638;2022-12-18T01:23:41;101677.56;;;-1.39;67.79
68380;BME280;57711;53.196;19.638;2022-12-18T01:26:14;101686.36;;;-1.34;67.92
68380;BME280;57711;53.196;19.638;2022-12-18T01:28:43;101690.25;;;-1.34;67.79
68380;BME280;57711;53.196;19.638;2022-12-18T01:31:27;101692.75;;;-1.35;67.84
68380;BME280;57711;53.196;19.638;2022-12-18T01:33:55;101697.39;;;-1.36;67.84
68380;BME280;57711;53.196;19.638;2022-12-18T01:36:29;101700.37;;;-1.34;67.94
68380;BME280;57711;53.196;19.638;2022-12-18T01:38:59;101706.61;;;-1.35;67.87
68380;BME280;57711;53.196;19.638;2022-12-18T01:41:29;101707.88;;;-1.38;67.91
68380;BME280;57711;53.196;19.638;2022-12-18T01:50:00;101711.69;;;-1.43;68.02
68380;BME280;57711;53.196;19.638;2022-12-18T01:52:31;101711.20;;;-1.45;68.00
68380;BME280;57711;53.196;19.638;2022-12-18T01:55:00;101712.13;;;-1.48;68.04
68380;BME280;57711;53.196;19.638;2022-12-18T01:57:28;101713.21;;;-1.49;67.98
68380;BME280;57711;53.196;19.638;2022-12-18T01:59:59;101712.81;;;-1.47;67.89
68380;BME280;57711;53.196;19.638;2022-12-18T02:02:43;101712.95;;;-1.44;67.94
68380;BME280;57711;53.196;19.638;2022-12-18T02:05:14;101717.84;;;-1.39;67.95
68380;BME280;57711;53.196;19.638;2022-12-18T02:08:29;101722.59;;;-1.36;67.89
68380;BME280;57711;53.196;19.638;2022-12-18T02:13:32;101730.84;;;-1.31;67.87
68380;BME280;57711;53.196;19.638;2022-12-18T02:16:24;101743.42;;;-1.30;68.00
68380;BME280;57711;53.196;19.638;2022-12-18T02:18:57;101741.30;;;-1.30;67.99
68380;BME280;57711;53.196;19.638;2022-12-18T02:21:54;101744.31;;;-1.30;68.03
68380;BME280;57711;53.196;19.638;2022-12-18T02:24:34;101748.77;;;-1.31;68.05
68380;BME280;57711;53.196;19.638;2022-12-18T02:27:06;101747.70;;;-1.31;68.06
68380;BME280;57711;53.196;19.638;2022-12-18T02:29:38;101744.35;;;-1.33;68.06
68380;BME280;57711;53.196;19.638;2022-12-18T02:32:12;101746.84;;;-1.34;68.05
68380;BME280;57711;53.196;19.638;2022-12-18T02:34:43;101749.52;;;-1.35;68.02
68380;BME280;57711;53.196;19.638;2022-12-18T02:37:16;101750.27;;;-1.37;68.11
68380;BME280;57711;53.196;19.638;2022-12-18T02:39:47;101753.63;;;-1.36;67.99
68380;BME280;57711;53.196;19.638;2022-12-18T02:42:16;101759.15;;;-1.37;67.93
68380;BME280;57711;53.196;19.638;2022-12-18T02:44:46;101763.09;;;-1.40;67.90
68380;BME280;57711;53.196;19.638;2022-12-18T02:47:18;101760.81;;;-1.42;67.77
68380;BME280;57711;53.196;19.638;2022-12-18T02:52:45;101768.45;;;-1.42;67.82
68380;BME280;57711;53.196;19.638;2022-12-18T02:56:30;101773.67;;;-1.47;67.87
68380;BME280;57711;53.196;19.638;2022-12-18T03:01:30;101774.69;;;-1.57;67.91
68380;BME280;57711;53.196;19.638;2022-12-18T03:04:02;101770.16;;;-1.62;67.78
68380;BME280;57711;53.196;19.638;2022-12-18T03:06:43;101774.66;;;-1.66;67.97
68380;BME280;57711;53.196;19.638;2022-12-18T03:09:33;101780.67;;;-1.65;68.03
68380;BME280;57711;53.196;19.638;2022-12-18T03:15:01;101783.02;;;-1.69;68.04
68380;BME280;57711;53.196;19.638;2022-12-18T03:17:32;101789.43;;;-1.70;68.02
68380;BME280;57711;53.196;19.638;2022-12-18T03:20:09;101788.35;;;-1.69;68.02
68380;BME280;57711;53.196;19.638;2022-12-18T03:22:38;101793.30;;;-1.67;67.87
68380;BME280;57711;53.196;19.638;2022-12-18T03:25:09;101799.49;;;-1.66;68.03
68380;BME280;57711;53.196;19.638;2022-12-18T03:27:42;101800.34;;;-1.64;67.94
68380;BME280;57711;53.196;19.638;2022-12-18T03:30:13;101804.13;;;-1.68;67.85
68380;BME280;57711;53.196;19.638;2022-12-18T03:35:29;101811.05;;;-1.69;67.82
68380;BME280;57711;53.196;19.638;2022-12-18T03:37:58;101813.75;;;-1.73;67.94
68380;BME280;57711;53.196;19.638;2022-12-18T03:43:52;101819.67;;;-1.78;68.16
68380;BME280;57711;53.196;19.638;2022-12-18T03:46:47;101826.78;;;-1.80;68.12
68380;BME280;57711;53.196;19.638;2022-12-18T03:49:27;101825.42;;;-1.83;68.09
68380;BME280;57711;53.196;19.638;2022-12-18T03:52:06;101822.46;;;-1.87;67.97
68380;BME280;57711;53.196;19.638;2022-12-18T03:54:38;101821.60;;;-1.90;67.95
68380;BME280;57711;53.196;19.638;2022-12-18T03:57:31;101816.83;;;-1.91;68.03
68380;BME280;57711;53.196;19.638;2022-12-18T04:00:05;101824.80;;;-1.90;68.03
68380;BME280;57711;53.196;19.638;2022-12-18T04:02:54;101833.77;;;-1.85;68.09
68380;BME280;57711;53.196;19.638;2022-12-18T04:05:29;101836.56;;;-1.81;68.31
68380;BME280;57711;53.196;19.638;2022-12-18T04:07:57;101840.39;;;-1.75;68.24
68380;BME280;57711;53.196;19.638;2022-12-18T04:10:25;101843.70;;;-1.71;68.33
68380;BME280;57711;53.196;19.638;2022-12-18T04:12:56;101844.02;;;-1.68;68.30
68380;BME280;57711;53.196;19.638;2022-12-18T04:15:24;101846.13;;;-1.66;68.29
68380;BME280;57711;53.196;19.638;2022-12-18T04:17:52;101842.76;;;-1.66;68.33
68380;BME280;57711;53.196;19.638;2022-12-18T04:20:21;101843.49;;;-1.69;68.27
68380;BME280;57711;53.196;19.638;2022-12-18T04:22:49;101849.52;;;-1.69;68.41
68380;BME280;57711;53.196;19.638;2022-12-18T04:25:18;101849.52;;;-1.68;68.46
68380;BME280;57711;53.196;19.638;2022-12-18T04:28:05;101852.52;;;-1.67;68.26
68380;BME280;57711;53.196;19.638;2022-12-18T04:30:33;101857.52;;;-1.70;68.11
68380;BME280;57711;53.196;19.638;2022-12-18T04:33:00;101862.70;;;-1.73;68.07
68380;BME280;57711;53.196;19.638;2022-12-18T04:35:29;101866.78;;;-1.73;68.18
68380;BME280;57711;53.196;19.638;2022-12-18T04:37:56;101867.48;;;-1.71;68.23
68380;BME280;57711;53.196;19.638;2022-12-18T04:40:23;101877.39;;;-1.71;68.23
68380;BME280;57711;53.196;19.638;2022-12-18T04:42:51;101880.41;;;-1.72;68.14
68380;BME280;57711;53.196;19.638;2022-12-18T04:45:18;101885.40;;;-1.74;68.22
68380;BME280;57711;53.196;19.638;2022-12-18T04:47:45;101888.14;;;-1.79;68.19
68380;BME280;57711;53.196;19.638;2022-12-18T04:50:12;101891.56;;;-1.84;68.08
68380;BME280;57711;53.196;19.638;2022-12-18T04:52:39;101899.60;;;-1.90;68.15
68380;BME280;57711;53.196;19.638;2022-12-18T04:55:07;101902.48;;;-1.94;68.11
68380;BME280;57711;53.196;19.638;2022-12-18T04:57:34;101908.90;;;-1.96;67.98
68380;BME280;57711;53.196;19.638;2022-12-18T05:00:02;101908.55;;;-1.98;67.98
68380;BME280;57711;53.196;19.638;2022-12-18T05:02:29;101909.61;;;-1.97;68.02
68380;BME280;57711;53.196;19.638;2022-12-18T05:04:57;101905.88;;;-1.96;68.08
68380;BME280;57711;53.196;19.638;2022-12-18T05:07:24;101905.35;;;-1.96;68.10
68380;BME280;57711;53.196;19.638;2022-12-18T05:09:51;101909.61;;;-1.96;68.11
68380;BME280;57711;53.196;19.638;2022-12-18T05:12:18;101915.64;;;-1.98;68.17
68380;BME280;57711;53.196;19.638;2022-12-18T05:14:45;101913.94;;;-2.04;68.04
68380;BME280;57711;53.196;19.638;2022-12-18T05:17:12;101915.56;;;-2.07;68.19
68380;BME280;57711;53.196;19.638;2022-12-18T05:19:40;101916.09;;;-2.07;68.37
68380;BME280;57711;53.196;19.638;2022-12-18T05:22:07;101915.59;;;-2.09;68.29
68380;BME280;57711;53.196;19.638;2022-12-18T05:24:34;101924.66;;;-2.13;68.14
68380;BME280;57711;53.196;19.638;2022-12-18T05:27:01;101933.36;;;-2.15;68.20
68380;BME280;57711;53.196;19.638;2022-12-18T05:29:28;101936.23;;;-2.19;68.02
68380;BME280;57711;53.196;19.638;2022-12-18T05:31:55;101937.16;;;-2.22;67.95
68380;BME280;57711;53.196;19.638;2022-12-18T05:34:23;101936.64;;;-2.24;67.94
68380;BME280;57711;53.196;19.638;2022-12-18T05:36:50;101939.65;;;-2.25;67.98
68380;BME280;57711;53.196;19.638;2022-12-18T05:39:17;101944.80;;;-2.26;68.04
68380;BME280;57711;53.196;19.638;2022-12-18T05:41:44;101947.84;;;-2.29;68.10
68380;BME280;57711;53.196;19.638;2022-12-18T05:44:12;101952.63;;;-2.29;68.06
68380;BME280;57711;53.196;19.638;2022-12-18T05:46:39;101955.48;;;-2.31;67.89
68380;BME280;57711;53.196;19.638;2022-12-18T05:49:08;101960.48;;;-2.36;68.06
68380;BME280;57711;53.196;19.638;2022-12-18T05:51:36;101961.20;;;-2.37;68.05
68380;BME280;57711;53.196;19.638;2022-12-18T05:54:03;101959.42;;;-2.37;68.19
68380;BME280;57711;53.196;19.638;2022-12-18T05:56:31;101961.91;;;-2.38;68.04
68380;BME280;57711;53.196;19.638;2022-12-18T05:58:58;101968.67;;;-2.42;67.89
68380;BME280;57711;53.196;19.638;2022-12-18T06:01:26;101976.82;;;-2.42;67.97
68380;BME280;57711;53.196;19.638;2022-12-18T06:03:54;101979.10;;;-2.40;67.92
68380;BME280;57711;53.196;19.638;2022-12-18T06:06:24;101973.92;;;-2.35;67.81
68380;BME280;57711;53.196;19.638;2022-12-18T06:08:53;101976.05;;;-2.33;67.80
68380;BME280;57711;53.196;19.638;2022-12-18T06:11:25;101977.48;;;-2.36;67.90
68380;BME280;57711;53.196;19.638;2022-12-18T06:13:54;101973.48;;;-2.44;67.77
68380;BME280;57711;53.196;19.638;2022-12-18T06:16:26;101972.96;;;-2.46;67.95
68380;BME280;57711;53.196;19.638;2022-12-18T06:18:56;101975.79;;;-2.46;68.03
68380;BME280;57711;53.196;19.638;2022-12-18T06:21:23;101979.16;;;-2.45;67.95
68380;BME280;57711;53.196;19.638;2022-12-18T06:23:50;101983.08;;;-2.49;67.82
68380;BME280;57711;53.196;19.638;2022-12-18T06:26:18;101990.54;;;-2.51;67.94
68380;BME280;57711;53.196;19.638;2022-12-18T06:28:53;101995.33;;;-2.53;67.94
68380;BME280;57711;53.196;19.638;2022-12-18T06:31:20;101997.98;;;-2.54;67.99
68380;BME280;57711;53.196;19.638;2022-12-18T06:33:47;102001.38;;;-2.57;67.84
68380;BME280;57711;53.196;19.638;2022-12-18T06:36:15;102003.86;;;-2.59;67.87
68380;BME280;57711;53.196;19.638;2022-12-18T06:38:43;102009.89;;;-2.60;67.75
68380;BME280;57711;53.196;19.638;2022-12-18T06:41:13;102021.94;;;-2.60;67.66
68380;BME280;57711;53.196;19.638;2022-12-18T06:43:41;102025.83;;;-2.58;67.70
68380;BME280;57711;53.196;19.638;2022-12-18T06:46:09;102031.82;;;-2.55;67.79
68380;BME280;57711;53.196;19.638;2022-12-18T06:48:37;102027.91;;;-2.55;67.69
68380;BME280;57711;53.196;19.638;2022-12-18T06:51:04;102038.36;;;-2.55;67.71
68380;BME280;57711;53.196;19.638;2022-12-18T06:53:32;102040.88;;;-2.57;67.71
68380;BME280;57711;53.196;19.638;2022-12-18T06:56:02;102045.85;;;-2.61;67.60
68380;BME280;57711;53.196;19.638;2022-12-18T06:58:35;102046.09;;;-2.71;67.53
68380;BME280;57711;53.196;19.638;2022-12-18T07:01:05;102048.24;;;-2.78;67.42
68380;BME280;57711;53.196;19.638;2022-12-18T07:03:32;102050.41;;;-2.87;67.41
68380;BME280;57711;53.196;19.638;2022-12-18T07:06:00;102049.95;;;-3.02;67.22
68380;BME280;57711;53.196;19.638;2022-12-18T07:08:28;102053.70;;;-3.13;67.19
68380;BME280;57711;53.196;19.638;2022-12-18T07:10:56;102059.94;;;-3.21;67.12
68380;BME280;57711;53.196;19.638;2022-12-18T07:13:24;102063.85;;;-3.29;67.15
68380;BME280;57711;53.196;19.638;2022-12-18T07:15:51;102065.80;;;-3.35;67.31
68380;BME280;57711;53.196;19.638;2022-12-18T07:18:18;102069.88;;;-3.37;67.46
68380;BME280;57711;53.196;19.638;2022-12-18T07:20:45;102082.79;;;-3.41;67.48
68380;BME280;57711;53.196;19.638;2022-12-18T07:23:13;102087.92;;;-3.45;67.41
68380;BME280;57711;53.196;19.638;2022-12-18T07:25:41;102094.66;;;-3.50;67.66
68380;BME280;57711;53.196;19.638;2022-12-18T07:28:08;102103.52;;;-3.56;67.35
68380;BME280;57711;53.196;19.638;2022-12-18T07:30:42;102102.29;;;-3.62;67.34
68380;BME280;57711;53.196;19.638;2022-12-18T07:33:09;102105.64;;;-3.68;67.29
68380;BME280;57711;53.196;19.638;2022-12-18T07:35:37;102107.59;;;-3.66;67.43
68380;BME280;57711;53.196;19.638;2022-12-18T07:38:04;102111.65;;;-3.63;67.69
68380;BME280;57711;53.196;19.638;2022-12-18T07:40:31;102114.66;;;-3.64;67.53
68380;BME280;57711;53.196;19.638;2022-12-18T07:42:58;102113.08;;;-3.69;67.47
68380;BME280;57711;53.196;19.638;2022-12-18T07:45:26;102112.70;;;-3.69;67.66
68380;BME280;57711;53.196;19.638;2022-12-18T07:47:53;102111.13;;;-3.70;67.82
68380;BME280;57711;53.196;19.638;2022-12-18T07:50:20;102115.55;;;-3.70;67.75
68380;BME280;57711;53.196;19.638;2022-12-18T07:52:48;102122.61;;;-3.68;67.67
68380;BME280;57711;53.196;19.638;2022-12-18T07:55:15;102120.49;;;-3.65;67.56
68380;BME280;57711;53.196;19.638;2022-12-18T07:57:42;102118.72;;;-3.60;67.72
68380;BME280;57711;53.196;19.638;2022-12-18T08:00:22;102119.05;;;-3.53;67.59
68380;BME280;57711;53.196;19.638;2022-12-18T08:02:49;102116.41;;;-3.53;67.65
68380;BME280;57711;53.196;19.638;2022-12-18T08:05:17;102119.25;;;-3.58;67.58
68380;BME280;57711;53.196;19.638;2022-12-18T08:07:45;102118.90;;;-3.63;67.75
68380;BME280;57711;53.196;19.638;2022-12-18T08:10:12;102120.14;;;-3.61;67.86
68380;BME280;57711;53.196;19.638;2022-12-18T08:12:39;102124.38;;;-3.58;67.89
68380;BME280;57711;53.196;19.638;2022-12-18T08:15:08;102131.45;;;-3.55;67.92
68380;BME280;57711;53.196;19.638;2022-12-18T08:17:35;102136.92;;;-3.54;67.96
68380;BME280;57711;53.196;19.638;2022-12-18T08:20:03;102139.75;;;-3.51;67.95
68380;BME280;57711;53.196;19.638;2022-12-18T08:22:33;102141.52;;;-3.50;67.96
68380;BME280;57711;53.196;19.638;2022-12-18T08:25:01;102144.16;;;-3.47;67.97
68380;BME280;57711;53.196;19.638;2022-12-18T08:27:28;102147.89;;;-3.49;67.88
68380;BME280;57711;53.196;19.638;2022-12-18T08:29:56;102148.77;;;-3.51;67.85
68380;BME280;57711;53.196;19.638;2022-12-18T08:32:25;102151.43;;;-3.48;67.98
68380;BME280;57711;53.196;19.638;2022-12-18T08:34:53;102152.47;;;-3.45;68.05
68380;BME280;57711;53.196;19.638;2022-12-18T08:37:20;102157.08;;;-3.41;68.13
68380;BME280;57711;53.196;19.638;2022-12-18T08:39:47;102159.20;;;-3.40;68.09
68380;BME280;57711;53.196;19.638;2022-12-18T08:42:14;102165.74;;;-3.37;67.98
68380;BME280;57711;53.196;19.638;2022-12-18T08:45:00;102174.23;;;-3.30;67.98
68380;BME280;57711;53.196;19.638;2022-12-18T08:47:28;102185.00;;;-3.24;67.97
68380;BME280;57711;53.196;19.638;2022-12-18T08:49:55;102185.70;;;-3.19;67.99
68380;BME280;57711;53.196;19.638;2022-12-18T08:52:22;102186.05;;;-3.14;68.00
68380;BME280;57711;53.196;19.638;2022-12-18T08:54:50;102186.39;;;-3.09;68.14
68380;BME280;57711;53.196;19.638;2022-12-18T08:57:17;102190.63;;;-3.07;67.93
68380;BME280;57711;53.196;19.638;2022-12-18T08:59:44;102196.30;;;-3.04;68.02
68380;BME280;57711;53.196;19.638;2022-12-18T09:02:12;102204.97;;;-3.07;67.88
68380;BME280;57711;53.196;19.638;2022-12-18T09:04:39;102209.73;;;-3.08;68.05
68380;BME280;57711;53.196;19.638;2022-12-18T09:07:06;102206.39;;;-3.05;68.07
68380;BME280;57711;53.196;19.638;2022-12-18T09:09:34;102199.66;;;-3.06;67.95
68380;BME280;57711;53.196;19.638;2022-12-18T09:12:01;102197.18;;;-3.01;68.10
68380;BME280;57711;53.196;19.638;2022-12-18T09:14:28;102200.52;;;-2.92;68.09
68380;BME280;57711;53.196;19.638;2022-12-18T09:16:55;102194.48;;;-2.84;68.08
68380;BME280;57711;53.196;19.638;2022-12-18T09:19:22;102195.52;;;-2.76;68.01
68380;BME280;57711;53.196;19.638;2022-12-18T09:21:49;102203.83;;;-2.70;67.91
68380;BME280;57711;53.196;19.638;2022-12-18T09:24:16;102204.70;;;-2.63;68.05
68380;BME280;57711;53.196;19.638;2022-12-18T09:26:44;102206.46;;;-2.58;68.04
68380;BME280;57711;53.196;19.638;2022-12-18T09:29:14;102207.50;;;-2.55;68.09
68380;BME280;57711;53.196;19.638;2022-12-18T09:31:44;102207.48;;;-2.55;68.00
68380;BME280;57711;53.196;19.638;2022-12-18T09:34:11;102202.55;;;-2.56;67.98
68380;BME280;57711;53.196;19.638;2022-12-18T09:36:39;102204.66;;;-2.56;68.17
68380;BME280;57711;53.196;19.638;2022-12-18T09:39:06;102208.02;;;-2.52;68.25
68380;BME280;57711;53.196;19.638;2022-12-18T09:46:53;102209.00;;;-2.34;68.15
68380;BME280;57711;53.196;19.638;2022-12-18T09:49:23;102212.16;;;-2.25;68.11
68380;BME280;57711;53.196;19.638;2022-12-18T09:51:57;102216.74;;;-2.21;67.92
68380;BME280;57711;53.196;19.638;2022-12-18T09:54:33;102217.84;;;-2.26;67.77
68380;BME280;57711;53.196;19.638;2022-12-18T09:57:03;102211.14;;;-2.33;67.85
68380;BME280;57711;53.196;19.638;2022-12-18T09:59:35;102203.00;;;-2.37;67.89
68380;BME280;57711;53.196;19.638;2022-12-18T10:02:20;102197.02;;;-2.46;67.79
68380;BME280;57711;53.196;19.638;2022-12-18T10:07:43;102196.52;;;-2.52;68.07
68380;BME280;57711;53.196;19.638;2022-12-18T10:12:53;102194.27;;;-2.70;67.85
68380;BME280;57711;53.196;19.638;2022-12-18T10:15:45;102200.47;;;-2.72;67.93
68380;BME280;57711;53.196;19.638;2022-12-18T10:21:04;102201.16;;;-2.63;67.95
68380;BME280;57711;53.196;19.638;2022-12-18T10:24:02;102203.12;;;-2.69;67.89
68380;BME280;57711;53.196;19.638;2022-12-18T10:26:36;102202.44;;;-2.80;67.78
68380;BME280;57711;53.196;19.638;2022-12-18T10:29:10;102201.93;;;-2.91;67.84
68380;BME280;57711;53.196;19.638;2022-12-18T10:31:38;102198.42;;;-2.99;67.81
68380;BME280;57711;53.196;19.638;2022-12-18T10:34:13;102192.56;;;-2.97;68.03
68380;BME280;57711;53.196;19.638;2022-12-18T10:36:42;102188.31;;;-2.95;67.97
68380;BME280;57711;53.196;19.638;2022-12-18T10:39:23;102189.73;;;-2.97;67.78
68380;BME280;57711;53.196;19.638;2022-12-18T10:42:10;102195.05;;;-3.03;67.96
68380;BME280;57711;53.196;19.638;2022-12-18T10:44:37;102192.05;;;-3.08;67.92
68380;BME280;57711;53.196;19.638;2022-12-18T10:47:09;102190.64;;;-3.10;67.96
68380;BME280;57711;53.196;19.638;2022-12-18T10:49:46;102187.64;;;-3.13;68.12
68380;BME280;57711;53.196;19.638;2022-12-18T10:52:22;102185.34;;;-3.15;68.01
68380;BME280;57711;53.196;19.638;2022-12-18T10:54:59;102186.57;;;-3.12;68.18
68380;BME280;57711;53.196;19.638;2022-12-18T10:57:32;102192.23;;;-3.02;68.15
68380;BME280;57711;53.196;19.638;2022-12-18T11:00:38;102194.35;;;-2.99;68.05
68380;BME280;57711;53.196;19.638;2022-12-18T11:06:10;102193.64;;;-3.05;67.99
68380;BME280;57711;53.196;19.638;2022-12-18T11:08:38;102195.25;;;-3.11;67.91
68380;BME280;57711;53.196;19.638;2022-12-18T11:11:17;102189.07;;;-3.17;67.94
68380;BME280;57711;53.196;19.638;2022-12-18T11:14:02;102186.95;;;-3.18;68.15
68380;BME280;57711;53.196;19.638;2022-12-18T11:16:42;102190.47;;;-3.13;68.33
68380;BME280;57711;53.196;19.638;2022-12-18T11:19:35;102199.32;;;-3.09;68.06
68380;BME280;57711;53.196;19.638;2022-12-18T11:22:39;102206.21;;;-3.10;67.99
68380;BME280;57711;53.196;19.638;2022-12-18T11:33:58;102207.98;;;-3.14;68.30
68380;BME280;57711;53.196;19.638;2022-12-18T11:36:47;102217.20;;;-3.14;68.20
68380;BME280;57711;53.196;19.638;2022-12-18T11:39:30;102215.95;;;-3.18;68.16
68380;BME280;57711;53.196;19.638;2022-12-18T11:42:12;102204.29;;;-3.18;68.19
68380;BME280;57711;53.196;19.638;2022-12-18T11:49:51;102215.59;;;-3.14;68.09
68380;BME280;57711;53.196;19.638;2022-12-18T11:52:24;102224.80;;;-3.18;68.06
68380;BME280;57711;53.196;19.638;2022-12-18T11:54:58;102224.62;;;-3.21;68.29
68380;BME280;57711;53.196;19.638;2022-12-18T12:00:07;102238.79;;;-3.29;68.03
68380;BME280;57711;53.196;19.638;2022-12-18T12:03:07;102238.61;;;-3.32;67.97
68380;BME280;57711;53.196;19.638;2022-12-18T12:11:35;102256.48;;;-3.18;68.22
68380;BME280;57711;53.196;19.638;2022-12-18T12:19:57;102264.26;;;-3.24;68.23
68380;BME280;57711;53.196;19.638;2022-12-18T12:22:48;102271.50;;;-3.28;68.10
68380;BME280;57711;53.196;19.638;2022-12-18T12:28:23;102273.11;;;-3.28;68.26
68380;BME280;57711;53.196;19.638;2022-12-18T12:33:48;102273.63;;;-3.28;68.20
68380;BME280;57711;53.196;19.638;2022-12-18T12:39:14;102270.96;;;-3.38;68.15
68380;BME280;57711;53.196;19.638;2022-12-18T12:41:46;102266.72;;;-3.43;68.24
68380;BME280;57711;53.196;19.638;2022-12-18T12:44:39;102270.61;;;-3.42;68.19
68380;BME280;57711;53.196;19.638;2022-12-18T12:47:23;102269.38;;;-3.40;68.18
68380;BME280;57711;53.196;19.638;2022-12-18T12:49:53;102268.33;;;-3.36;68.39
68380;BME280;57711;53.196;19.638;2022-12-18T12:52:32;102269.90;;;-3.32;68.40
68380;BME280;57711;53.196;19.638;2022-12-18T12:55:04;102271.86;;;-3.26;68.34
68380;BME280;57711;53.196;19.638;2022-12-18T12:57:43;102267.27;;;-3.28;68.28
68380;BME280;57711;53.196;19.638;2022-12-18T13:00:16;102262.84;;;-3.29;68.17
68380;BME280;57711;53.196;19.638;2022-12-18T13:05:54;102266.56;;;-3.29;68.28
68380;BME280;57711;53.196;19.638;2022-12-18T13:08:29;102268.14;;;-3.28;68.16
68380;BME280;57711;53.196;19.638;2022-12-18T13:11:01;102263.91;;;-3.29;68.36
68380;BME280;57711;53.196;19.638;2022-12-18T13:13:52;102258.93;;;-3.25;68.65
68380;BME280;57711;53.196;19.638;2022-12-18T13:16:22;102263.55;;;-3.22;68.50
68380;BME280;57711;53.196;19.638;2022-12-18T13:18:54;102265.85;;;-3.20;68.41
68380;BME280;57711;53.196;19.638;2022-12-18T13:21:25;102267.61;;;-3.17;68.41
68380;BME280;57711;53.196;19.638;2022-12-18T13:23:55;102264.43;;;-3.12;68.41
68380;BME280;57711;53.196;19.638;2022-12-18T13:28:56;102272.75;;;-3.12;68.21
68380;BME280;57711;53.196;19.638;2022-12-18T13:34:18;102293.27;;;-3.16;68.38
68380;BME280;57711;53.196;19.638;2022-12-18T13:37:33;102303.52;;;-3.21;68.43
68380;BME280;57711;53.196;19.638;2022-12-18T13:39:44;102309.36;;;-3.20;68.32
68380;BME280;57711;53.196;19.638;2022-12-18T13:44:59;102313.44;;;-3.14;68.32
68380;BME280;57711;53.196;19.638;2022-12-18T13:47:33;102318.39;;;-3.15;68.27
68380;BME280;57711;53.196;19.638;2022-12-18T13:50:10;102322.65;;;-3.15;68.39
68380;BME280;57711;53.196;19.638;2022-12-18T13:52:52;102326.71;;;-3.14;68.48
68380;BME280;57711;53.196;19.638;2022-12-18T13:55:20;102333.98;;;-3.16;68.42
68380;BME280;57711;53.196;19.638;2022-12-18T13:57:49;102332.73;;;-3.19;68.42
68380;BME280;57711;53.196;19.638;2022-12-18T14:00:29;102334.15;;;-3.19;68.53
68380;BME280;57711;53.196;19.638;2022-12-18T14:02:58;102332.73;;;-3.17;68.44
68380;BME280;57711;53.196;19.638;2022-12-18T14:05:36;102335.91;;;-3.14;68.42
68380;BME280;57711;53.196;19.638;2022-12-18T14:08:15;102332.02;;;-3.15;68.22
68380;BME280;57711;53.196;19.638;2022-12-18T14:10:45;102326.19;;;-3.19;68.27
68380;BME280;57711;53.196;19.638;2022-12-18T14:13:35;102327.58;;;-3.23;68.26
68380;BME280;57711;53.196;19.638;2022-12-18T14:16:05;102332.52;;;-3.29;68.23
68380;BME280;57711;53.196;19.638;2022-12-18T14:18:46;102341.20;;;-3.33;68.36
68380;BME280;57711;53.196;19.638;2022-12-18T14:21:23;102345.61;;;-3.33;68.52
68380;BME280;57711;53.196;19.638;2022-12-18T14:24:12;102354.65;;;-3.30;68.41
68380;BME280;57711;53.196;19.638;2022-12-18T14:26:43;102351.63;;;-3.37;68.14
68380;BME280;57711;53.196;19.638;2022-12-18T14:29:26;102357.98;;;-3.42;68.23
68380;BME280;57711;53.196;19.638;2022-12-18T14:32:11;102358.30;;;-3.47;68.20
68380;BME280;57711;53.196;19.638;2022-12-18T14:34:49;102366.09;;;-3.49;68.38